Comanche, Texas
Current Conditions -  °F | °C
As of 12:15 AM on Sunday 26 Oct 2014 (Local Time) from KMKN Reporting Station
Clear Clear  
Wind Chill: 67°   Ceiling: Unl
Heat Index: 67°   Visibility: 10mi
Dew Point: 58°   Wind: 7mph
Humidity: 72%   Direction: 180°S
Pressure: 30.08"   Gusts: NA
Location:  31.9°N, 98.6°W
Report Text: KMKN 260515Z AUTO 18006KT 10SM CLR 19/14 A3008 RMK AO2 T01930142
Loading
Personal Weather Stations






























Interactive Weather Map New forecast layout! Learn more

10-Day Weather Forecast

Advertisements
Track Severe Weather on mobile